Time;durP1;ratioP1;P1;durP2;ratioP2;P2;SDS_P1;SDS_P2;PMS_P1;PMS_P2;Temp;Humidity;BMP_temperature;BMP_pressure;BME280_temperature;BME280_humidity;BME280_pressure;Samples;Min_cycle;Max_cycle;Signal;HPM_P1;HPM_P2
2022/04/21 00:01:05;;;;;;;8.53;7.83;;;;;;;6.26;100.00;95929.50;5030504;28;20940;-76
2022/04/21 00:03:32;;;;;;;7.07;6.47;;;;;;;5.94;100.00;95904.47;5030465;28;20437;-77
2022/04/21 00:05:58;;;;;;;7.20;6.67;;;;;;;6.00;100.00;95911.09;5035139;28;20481;-76
2022/04/21 00:08:25;;;;;;;8.33;7.53;;;;;;;6.14;100.00;95943.25;5025332;28;20521;-76
2022/04/21 00:10:52;;;;;;;8.80;8.00;;;;;;;6.10;100.00;95915.28;5036139;28;20515;-76
2022/04/21 00:13:18;;;;;;;7.00;6.30;;;;;;;6.18;100.00;95932.91;5037972;28;20523;-76
2022/04/21 00:15:45;;;;;;;9.40;7.53;;;;;;;5.96;100.00;95899.69;5020147;28;20475;-76
2022/04/21 00:18:12;;;;;;;7.40;6.60;;;;;;;5.82;100.00;95907.66;5051269;28;20548;-76
2022/04/21 00:20:39;;;;;;;6.70;6.00;;;;;;;5.74;100.00;95905.00;5030908;28;20435;-76
2022/04/21 00:25:50;;;;;;;7.67;6.97;;;;;;;6.11;100.00;95930.72;5019393;28;20437;-76
2022/04/21 00:28:17;;;;;;;8.57;7.87;;;;;;;6.17;100.00;95926.09;5029810;28;20534;-77
2022/04/21 00:30:44;;;;;;;6.80;6.30;;;;;;;6.26;100.00;95934.75;5030581;28;20775;-76
2022/04/21 00:33:10;;;;;;;7.60;6.90;;;;;;;6.12;100.00;95910.50;5030341;28;20460;-76
2022/04/21 00:35:37;;;;;;;8.57;7.63;;;;;;;6.11;100.00;95901.84;5013993;28;20470;-76
2022/04/21 00:38:04;;;;;;;7.17;6.57;;;;;;;5.97;100.00;95882.09;5030412;28;20428;-76
2022/04/21 00:40:32;;;;;;;7.17;6.57;;;;;;;6.26;100.00;95923.47;5031761;28;20543;-75
2022/04/21 00:43:00;;;;;;;7.80;7.10;;;;;;;6.11;100.00;95914.97;5034322;28;20469;-76
2022/04/21 00:45:29;;;;;;;6.67;5.90;;;;;;;6.01;100.00;95898.75;5019085;28;20452;-76
2022/04/21 00:47:58;;;;;;;7.03;6.43;;;;;;;5.95;100.00;95906.00;5032602;28;20463;-76
2022/04/21 00:50:34;;;;;;;6.60;5.97;;;;;;;5.64;100.00;95895.56;5031065;28;20452;-76
2022/04/21 00:53:02;;;;;;;6.80;6.13;;;;;;;5.93;100.00;95921.28;5035339;28;20487;-75
2022/04/21 00:55:30;;;;;;;7.87;7.13;;;;;;;6.11;100.00;95916.81;5031333;28;20527;-76
2022/04/21 00:57:58;;;;;;;7.37;6.77;;;;;;;6.01;100.00;95920.53;5048850;28;20460;-76
2022/04/21 01:00:25;;;;;;;7.77;7.07;;;;;;;5.98;100.00;95910.63;5035597;28;20448;-76
2022/04/21 01:02:54;;;;;;;10.80;7.83;;;;;;;6.01;100.00;95906.63;5040646;28;20471;-76
2022/04/21 01:05:28;;;;;;;7.63;6.83;;;;;;;6.02;100.00;95908.97;5043170;28;20548;-76
2022/04/21 01:07:58;;;;;;;7.40;6.90;;;;;;;5.93;100.00;95897.66;5027448;28;20546;-76
2022/04/21 01:10:26;;;;;;;11.10;7.63;;;;;;;6.01;100.00;95904.00;5029975;28;20543;-76
2022/04/21 01:12:54;;;;;;;7.13;6.53;;;;;;;5.96;100.00;95904.16;5044646;28;20441;-75
2022/04/21 01:15:20;;;;;;;7.23;6.60;;;;;;;5.92;100.00;95888.25;5023639;28;20444;-77
2022/04/21 01:17:47;;;;;;;9.53;8.50;;;;;;;5.95;100.00;95902.59;5045927;28;20535;-76
2022/04/21 01:20:20;;;;;;;8.57;7.77;;;;;;;5.75;100.00;95880.34;5035543;28;21365;-75
2022/04/21 01:22:47;;;;;;;7.50;6.80;;;;;;;5.93;100.00;95898.44;5017192;28;20563;-76
2022/04/21 01:25:14;;;;;;;9.40;8.00;;;;;;;5.93;100.00;95892.41;5034215;28;20480;-75
2022/04/21 01:27:41;;;;;;;7.50;6.90;;;;;;;5.91;100.00;95874.38;5014335;28;20467;-75
2022/04/21 01:30:11;;;;;;;8.97;8.07;;;;;;;6.06;100.00;95888.88;5033434;28;20979;-76
2022/04/21 01:32:42;;;;;;;8.73;7.83;;;;;;;5.89;100.00;95873.88;5033509;28;20436;-76
2022/04/21 01:35:10;;;;;;;7.77;6.97;;;;;;;5.97;100.00;95892.56;5047070;28;20830;-76
2022/04/21 01:43:07;;;;;;;8.30;7.50;;;;;;;5.95;100.00;95889.50;5034340;28;20455;-76
2022/04/21 01:45:34;;;;;;;8.83;7.50;;;;;;;5.98;100.00;95884.41;5033449;28;20433;-76
2022/04/21 01:48:02;;;;;;;10.20;7.50;;;;;;;6.02;100.00;95880.09;5017193;28;20529;-76
2022/04/21 01:50:29;;;;;;;15.33;8.50;;;;;;;5.62;100.00;95824.31;5033021;28;20444;-76
2022/04/21 01:52:58;;;;;;;7.73;6.93;;;;;;;5.88;100.00;95853.19;5021125;28;20534;-76
2022/04/21 01:55:25;;;;;;;8.27;7.47;;;;;;;6.00;100.00;95876.22;5024864;28;20766;-76
2022/04/21 01:57:53;;;;;;;7.23;6.63;;;;;;;5.89;100.00;95839.00;5038195;28;20969;-76
2022/04/21 02:00:20;;;;;;;9.90;7.43;;;;;;;5.97;100.00;95840.09;5040459;28;20464;-76
2022/04/21 02:02:47;;;;;;;16.20;7.70;;;;;;;6.14;100.00;95868.97;5032829;28;20499;-76
2022/04/21 02:05:14;;;;;;;7.67;6.83;;;;;;;5.78;100.00;95867.38;5032507;28;20431;-76
2022/04/21 02:07:45;;;;;;;8.53;7.10;;;;;;;5.60;100.00;95831.69;5032378;28;20455;-76
2022/04/21 02:10:16;;;;;;;8.40;6.77;;;;;;;5.66;100.00;95840.19;5015840;28;20507;-76
2022/04/21 02:12:43;;;;;;;8.93;7.77;;;;;;;5.70;100.00;95862.09;5032571;28;20943;-76
2022/04/21 02:15:10;;;;;;;8.10;7.07;;;;;;;5.76;100.00;95832.03;5016075;28;20437;-76
2022/04/21 02:17:37;;;;;;;7.70;6.90;;;;;;;5.76;100.00;95835.44;5043863;28;20453;-76
2022/04/21 02:20:06;;;;;;;9.00;7.77;;;;;;;5.95;100.00;95847.50;5045931;28;20447;-76
2022/04/21 02:22:35;;;;;;;8.90;8.00;;;;;;;5.77;100.00;95821.25;5032999;28;20467;-76
2022/04/21 02:25:03;;;;;;;8.83;7.50;;;;;;;5.92;100.00;95864.66;5032717;28;20519;-76
2022/04/21 02:27:30;;;;;;;8.80;7.87;;;;;;;5.92;100.00;95859.41;5025807;28;20542;-76
2022/04/21 02:29:56;;;;;;;8.17;7.47;;;;;;;5.43;100.00;95803.59;5036521;28;20547;-76
2022/04/21 02:32:23;;;;;;;8.00;7.30;;;;;;;5.87;100.00;95862.91;5034019;28;20465;-76
2022/04/21 02:34:51;;;;;;;10.00;6.87;;;;;;;5.90;100.00;95862.34;5036059;28;20437;-76
2022/04/21 02:37:18;;;;;;;8.93;8.13;;;;;;;5.81;100.00;95827.41;5041819;28;20484;-76
2022/04/21 02:39:44;;;;;;;9.73;8.93;;;;;;;6.02;100.00;95832.88;5037355;28;20451;-76
2022/04/21 02:42:11;;;;;;;8.03;7.30;;;;;;;6.37;100.00;95864.34;5041551;28;20475;-76
2022/04/21 02:44:40;;;;;;;7.57;6.97;;;;;;;6.21;100.00;95853.53;5019909;28;20480;-76
2022/04/21 02:47:08;;;;;;;9.10;8.20;;;;;;;6.07;100.00;95842.44;5053133;28;20857;-76
2022/04/21 02:49:35;;;;;;;8.00;7.33;;;;;;;6.06;100.00;95849.53;5033735;28;20469;-76
2022/04/21 02:52:06;;;;;;;11.07;9.27;;;;;;;6.09;100.00;95850.75;5043263;28;20432;-76
2022/04/21 02:57:21;;;;;;;9.47;8.60;;;;;;;6.02;100.00;95845.22;5053241;28;20517;-76
2022/04/21 02:59:59;;;;;;;9.27;8.40;;;;;;;6.10;100.00;95852.31;5043824;28;20966;-76
2022/04/21 03:02:26;;;;;;;10.00;9.13;;;;;;;5.82;100.00;95842.06;5032623;28;20455;-76
2022/04/21 03:04:54;;;;;;;10.07;9.07;;;;;;;5.70;100.00;95834.03;5031378;28;20436;-76
2022/04/21 03:07:22;;;;;;;10.10;9.10;;;;;;;5.76;100.00;95845.16;5011680;28;20472;-76
2022/04/21 03:09:55;;;;;;;8.77;7.87;;;;;;;5.63;100.00;95810.13;5021780;28;20518;-76
2022/04/21 03:12:23;;;;;;;10.53;9.47;;;;;;;5.79;100.00;95829.56;5044836;28;20511;-76
2022/04/21 03:14:50;;;;;;;8.83;7.93;;;;;;;5.60;100.00;95800.22;5042788;28;20456;-76
2022/04/21 03:17:16;;;;;;;9.13;8.20;;;;;;;5.49;100.00;95793.75;5028450;28;20539;-76
2022/04/21 03:19:43;;;;;;;9.00;8.30;;;;;;;5.79;100.00;95840.06;5032167;28;20452;-76
2022/04/21 03:24:59;;;;;;;12.23;9.37;;;;;;;5.72;100.00;95821.38;5030958;28;21032;-76
2022/04/21 03:27:28;;;;;;;12.53;9.47;;;;;;;5.72;100.00;95815.34;5031066;28;21034;-76
2022/04/21 03:29:56;;;;;;;9.37;8.57;;;;;;;5.79;100.00;95823.56;5030662;28;20887;-75
2022/04/21 03:32:26;;;;;;;10.43;8.80;;;;;;;5.77;100.00;95834.34;5030981;28;20434;-75
2022/04/21 03:34:53;;;;;;;9.60;8.60;;;;;;;5.73;100.00;95822.91;5030918;28;20738;-75
2022/04/21 03:37:21;;;;;;;9.27;8.37;;;;;;;5.82;100.00;95820.31;5032895;28;20820;-76
2022/04/21 03:39:47;;;;;;;9.80;8.30;;;;;;;5.68;100.00;95796.84;5032105;28;20466;-76
2022/04/21 03:42:26;;;;;;;9.97;8.40;;;;;;;5.49;100.00;95762.28;5030738;28;21306;-76
2022/04/21 03:44:54;;;;;;;8.70;7.90;;;;;;;5.86;100.00;95808.88;5014655;28;20762;-76
2022/04/21 03:47:21;;;;;;;9.23;8.43;;;;;;;5.75;100.00;95793.78;5030814;28;20464;-76
2022/04/21 03:49:48;;;;;;;9.67;8.07;;;;;;;6.07;100.00;95827.44;5030588;28;20463;-76
2022/04/21 03:52:17;;;;;;;9.40;8.47;;;;;;;5.93;100.00;95788.25;5043290;28;20487;-76
2022/04/21 03:54:44;;;;;;;10.20;9.30;;;;;;;5.91;100.00;95806.16;5032243;28;20437;-76
2022/04/21 03:57:10;;;;;;;9.47;8.67;;;;;;;5.71;100.00;95775.25;5030330;28;20439;-76
2022/04/21 03:59:37;;;;;;;9.67;8.60;;;;;;;5.92;100.00;95805.06;5031483;28;20452;-76
2022/04/21 04:02:04;;;;;;;9.00;8.20;;;;;;;5.91;100.00;95811.41;5046782;28;20567;-76
2022/04/21 04:04:33;;;;;;;10.30;9.23;;;;;;;5.98;100.00;95828.53;5018903;28;20504;-76
2022/04/21 04:12:36;;;;;;;10.03;9.13;;;;;;;5.94;100.00;95815.25;5030327;28;20527;-76
2022/04/21 04:15:05;;;;;;;9.10;8.20;;;;;;;5.77;100.00;95795.00;5014145;28;20491;-76
2022/04/21 04:17:32;;;;;;;9.50;8.60;;;;;;;5.71;100.00;95819.84;5054822;28;20453;-76
2022/04/21 04:19:59;;;;;;;9.13;8.30;;;;;;;5.53;100.00;95782.34;5035519;28;20465;-76
2022/04/21 04:22:26;;;;;;;8.53;7.57;;;;;;;5.77;100.00;95812.59;5013962;28;20467;-76
2022/04/21 04:24:56;;;;;;;9.17;8.37;;;;;;;5.55;100.00;95788.03;5030289;28;20895;-75
2022/04/21 04:27:24;;;;;;;9.60;8.67;;;;;;;5.77;100.00;95812.59;5013640;28;20452;-75
2022/04/21 04:29:51;;;;;;;11.63;8.30;;;;;;;5.60;100.00;95790.50;5045800;28;20562;-75
2022/04/21 04:32:18;;;;;;;9.07;8.23;;;;;;;5.82;100.00;95813.22;5034420;28;20451;-75
2022/04/21 04:34:45;;;;;;;10.17;9.17;;;;;;;5.93;100.00;95814.50;5048042;28;20541;-75
2022/04/21 04:37:11;;;;;;;10.13;8.90;;;;;;;5.78;100.00;95808.91;5031919;28;20433;-75
2022/04/21 04:39:38;;;;;;;12.13;9.57;;;;;;;5.79;100.00;95805.19;5030551;28;20499;-75
2022/04/21 04:42:17;;;;;;;10.77;9.10;;;;;;;5.80;100.00;95794.41;5030857;28;20470;-75
2022/04/21 04:44:45;;;;;;;9.80;8.67;;;;;;;6.01;100.00;95823.44;5030365;28;20468;-75
2022/04/21 04:47:12;;;;;;;9.43;8.47;;;;;;;6.01;100.00;95830.53;5032153;28;20532;-75
2022/04/21 04:49:39;;;;;;;11.63;9.00;;;;;;;5.85;100.00;95796.84;5031719;28;20553;-75
2022/04/21 04:52:06;;;;;;;10.00;9.10;;;;;;;5.74;100.00;95816.59;5050230;28;20528;-75
2022/04/21 04:54:33;;;;;;;10.90;8.43;;;;;;;5.62;100.00;95805.97;5031743;28;20543;-75
2022/04/21 04:57:00;;;;;;;10.00;9.20;;;;;;;5.77;100.00;95817.84;5031366;28;20470;-75
2022/04/21 04:59:27;;;;;;;8.70;7.90;;;;;;;5.76;100.00;95826.81;5013502;28;21004;-75
2022/04/21 05:01:54;;;;;;;10.10;9.20;;;;;;;5.61;100.00;95802.56;5029977;28;20453;-75
2022/04/21 05:04:21;;;;;;;9.87;8.97;;;;;;;5.81;100.00;95837.91;5029984;28;20539;-75
2022/04/21 05:06:50;;;;;;;9.27;8.37;;;;;;;5.68;100.00;95832.78;5030011;28;20482;-75
2022/04/21 05:09:21;;;;;;;10.77;9.70;;;;;;;5.59;100.00;95838.00;5029677;28;20467;-75
2022/04/21 05:11:53;;;;;;;12.43;11.10;;;;;;;5.72;100.00;95831.09;5029825;28;20535;-75
2022/04/21 05:14:22;;;;;;;10.03;9.17;;;;;;;5.65;100.00;95818.44;5030688;28;20471;-75
2022/04/21 05:16:49;;;;;;;11.07;9.57;;;;;;;5.77;100.00;95834.34;5042903;28;20456;-75
2022/04/21 05:19:19;;;;;;;11.60;10.43;;;;;;;5.84;100.00;95839.13;5029764;28;20449;-75
2022/04/21 05:21:47;;;;;;;11.20;10.07;;;;;;;5.62;100.00;95816.44;5030974;28;20429;-75
2022/04/21 05:24:14;;;;;;;11.27;10.20;;;;;;;5.63;100.00;95826.63;5029430;28;20473;-76
2022/04/21 05:26:42;;;;;;;12.07;10.97;;;;;;;5.52;100.00;95821.97;5045255;28;20492;-75
2022/04/21 05:31:56;;;;;;;11.23;10.13;;;;;;;5.90;100.00;95841.34;5049422;28;20562;-75
2022/04/21 05:34:25;;;;;;;10.97;9.80;;;;;;;5.90;100.00;95838.72;5050660;28;20445;-74
2022/04/21 05:36:52;;;;;;;10.70;9.33;;;;;;;5.71;100.00;95840.81;5049615;28;20935;-74
2022/04/21 05:39:20;;;;;;;11.40;10.30;;;;;;;5.66;100.00;95834.97;5052527;28;20462;-75
2022/04/21 05:41:47;;;;;;;11.27;9.10;;;;;;;5.46;100.00;95796.97;5053357;28;20488;-75
2022/04/21 05:44:14;;;;;;;11.60;10.20;;;;;;;5.62;100.00;95840.03;5040150;28;20546;-75
2022/04/21 05:46:42;;;;;;;9.07;8.27;;;;;;;5.84;100.00;95847.78;5022854;28;20428;-74
2022/04/21 05:49:09;;;;;;;9.20;8.40;;;;;;;5.60;100.00;95827.22;5035081;28;20551;-74
2022/04/21 05:51:36;;;;;;;10.10;9.10;;;;;;;5.86;100.00;95843.00;5039881;28;20453;-75
2022/04/21 05:54:06;;;;;;;9.67;8.87;;;;;;;5.89;100.00;95837.16;5052815;28;20446;-75
2022/04/21 05:56:33;;;;;;;9.87;8.70;;;;;;;5.70;100.00;95799.16;5045239;28;20450;-75
2022/04/21 05:59:00;;;;;;;9.37;8.57;;;;;;;5.78;100.00;95812.28;5033119;28;20471;-75
2022/04/21 06:01:27;;;;;;;12.60;10.47;;;;;;;5.95;100.00;95805.53;5033106;28;20439;-75
2022/04/21 06:03:54;;;;;;;9.80;8.80;;;;;;;5.75;100.00;95809.53;5016260;28;20829;-75
2022/04/21 06:06:21;;;;;;;10.47;9.57;;;;;;;5.89;100.00;95816.16;5032992;28;20436;-74
2022/04/21 06:08:47;;;;;;;8.63;7.83;;;;;;;5.67;100.00;95803.19;5020657;28;20552;-74
2022/04/21 06:11:14;;;;;;;9.60;8.60;;;;;;;5.66;100.00;95817.38;5016214;28;20476;-74
2022/04/21 06:13:41;;;;;;;10.23;9.17;;;;;;;5.69;100.00;95795.78;5028295;28;20444;-75
2022/04/21 06:16:09;;;;;;;13.03;9.10;;;;;;;6.31;100.00;95828.84;5025769;28;20446;-75
2022/04/21 06:18:36;;;;;;;8.60;7.87;;;;;;;6.28;100.00;95830.22;5023063;28;20495;-74
2022/04/21 06:21:05;;;;;;;10.60;9.70;;;;;;;6.42;100.00;95835.31;5053406;28;20471;-74
2022/04/21 06:23:32;;;;;;;10.13;9.10;;;;;;;6.41;100.00;95836.38;5036057;28;20999;-74
2022/04/21 06:25:59;;;;;;;8.90;8.07;;;;;;;6.51;100.00;95836.81;5042405;28;20878;-73
2022/04/21 06:28:26;;;;;;;8.80;8.00;;;;;;;6.58;100.00;95843.47;5052161;28;20467;-73
2022/04/21 06:30:53;;;;;;;8.50;7.70;;;;;;;6.56;100.00;95843.03;5053009;28;20436;-73
2022/04/21 06:33:21;;;;;;;11.03;9.13;;;;;;;6.53;100.00;95818.13;5036180;28;20819;-73
2022/04/21 06:35:47;;;;;;;9.60;8.70;;;;;;;6.62;100.00;95837.28;5043168;28;20450;-73
2022/04/21 06:38:14;;;;;;;8.70;7.80;;;;;;;6.48;100.00;95834.06;5018876;28;20531;-73
2022/04/21 06:40:41;;;;;;;11.53;9.47;;;;;;;6.76;100.00;95832.59;5032620;28;20529;-73
2022/04/21 06:48:55;;;;;;;9.10;8.20;;;;;;;6.79;100.00;95836.47;5041629;28;20987;-74
2022/04/21 06:51:21;;;;;;;11.67;9.00;;;;;;;6.80;100.00;95832.75;5032204;28;20534;-74
2022/04/21 06:53:48;;;;;;;10.13;9.27;;;;;;;6.92;100.00;95843.38;5015864;28;20527;-74
2022/04/21 06:56:16;;;;;;;14.53;10.20;;;;;;;7.31;100.00;95854.66;5032072;28;20446;-74
2022/04/21 06:58:42;;;;;;;9.43;8.43;;;;;;;7.32;100.00;95859.63;5033426;28;20534;-74
2022/04/21 07:01:09;;;;;;;10.80;8.93;;;;;;;7.17;100.00;95830.47;5050625;28;20447;-74
2022/04/21 07:03:36;;;;;;;12.00;10.03;;;;;;;7.46;100.00;95862.03;5051853;28;20499;-74
2022/04/21 07:06:03;;;;;;;12.13;10.87;;;;;;;7.08;100.00;95828.66;5035510;28;20474;-74
2022/04/21 07:08:30;;;;;;;9.83;8.83;;;;;;;7.32;100.00;95861.47;5025578;28;20452;-74
2022/04/21 07:10:57;;;;;;;12.87;9.60;;;;;;;7.14;100.00;95845.00;5046388;28;20432;-74
2022/04/21 07:13:24;;;;;;;12.37;9.43;;;;;;;7.27;100.00;95869.53;5033270;28;20518;-74
2022/04/21 07:15:51;;;;;;;12.67;10.30;;;;;;;7.10;100.00;95839.63;5038990;28;20448;-74
2022/04/21 07:18:18;;;;;;;10.63;9.23;;;;;;;7.36;100.00;95870.28;5044811;28;20463;-74
2022/04/21 07:20:46;;;;;;;10.50;9.50;;;;;;;7.09;100.00;95843.34;5040557;28;20784;-74
2022/04/21 07:23:13;;;;;;;12.20;10.10;;;;;;;6.96;100.00;95823.28;5031723;28;20544;-74
2022/04/21 07:25:42;;;;;;;12.27;10.67;;;;;;;7.14;100.00;95846.88;5038851;28;20447;-74
2022/04/21 07:28:08;;;;;;;11.67;10.47;;;;;;;7.20;100.00;95866.63;5021047;28;20428;-74
2022/04/21 07:30:35;;;;;;;20.70;12.10;;;;;;;7.36;100.00;95863.16;5048363;28;20448;-74
2022/04/21 07:33:02;;;;;;;10.97;9.83;;;;;;;7.29;100.00;95846.34;5015975;28;20428;-74
2022/04/21 07:35:29;;;;;;;11.50;10.30;;;;;;;7.47;100.00;95844.38;5052622;28;20440;-74
2022/04/21 07:37:59;;;;;;;13.47;11.23;;;;;;;7.48;100.00;95866.97;5050228;28;20435;-74
2022/04/21 07:40:26;;;;;;;11.30;10.10;;;;;;;7.51;100.00;95855.84;5033359;28;21074;-75
2022/04/21 07:42:54;;;;;;;11.70;10.07;;;;;;;6.84;100.00;95761.97;5015195;28;20473;-75
2022/04/21 07:45:21;;;;;;;13.83;11.00;;;;;;;7.61;100.00;95837.81;5033497;28;20426;-75
2022/04/21 07:47:47;;;;;;;13.47;12.07;;;;;;;7.65;100.00;95828.19;5031149;28;20437;-75
2022/04/21 07:50:14;;;;;;;12.47;11.17;;;;;;;7.77;100.00;95842.53;5047711;28;20487;-75
2022/04/21 07:53:13;;;;;;;12.00;10.03;;;;;;;7.70;100.00;95830.63;5017557;28;20805;-75
2022/04/21 07:55:46;;;;;;;12.20;11.00;;;;;;;7.93;100.00;95841.63;5031300;28;20431;-75
2022/04/21 07:58:14;;;;;;;11.63;9.70;;;;;;;8.13;100.00;95834.03;5032538;28;20536;-75
2022/04/21 08:00:40;;;;;;;11.13;9.80;;;;;;;8.39;100.00;95829.34;5031052;28;20523;-75
2022/04/21 08:03:11;;;;;;;10.03;8.83;;;;;;;8.46;100.00;95853.31;5014985;28;20483;-75
2022/04/21 08:05:37;;;;;;;9.20;8.00;;;;;;;8.45;100.00;95843.88;5032512;28;20478;-73
2022/04/21 08:08:05;;;;;;;10.73;8.93;;;;;;;8.42;100.00;95851.69;5030926;28;20439;-73
2022/04/21 08:10:32;;;;;;;13.33;10.30;;;;;;;8.82;100.00;95838.72;5030426;28;20994;-73
2022/04/21 08:12:59;;;;;;;15.60;9.47;;;;;;;8.50;100.00;95858.72;5030810;28;20890;-73
2022/04/21 08:15:30;;;;;;;11.27;9.10;;;;;;;8.38;100.00;95841.00;5033988;28;20439;-73
2022/04/21 08:18:01;;;;;;;9.43;8.43;;;;;;;8.80;100.00;95869.91;5023160;28;20479;-73
2022/04/21 08:20:31;;;;;;;10.70;8.80;;;;;;;8.76;100.00;95864.50;5031946;28;20451;-73
2022/04/21 08:22:57;;;;;;;9.77;8.80;;;;;;;8.82;100.00;95849.28;5030782;28;20447;-73
2022/04/21 08:34:20;;;;;;;11.67;8.60;;;;;;;9.21;100.00;95853.16;5031943;28;20928;-73
2022/04/21 08:36:52;;;;;;;11.27;9.70;;;;;;;8.94;100.00;95825.53;5050990;28;20471;-73
2022/04/21 08:39:19;;;;;;;10.07;8.83;;;;;;;9.15;100.00;95818.31;5053472;28;20457;-73
2022/04/21 08:41:53;;;;;;;10.57;9.57;;;;;;;9.65;100.00;95845.47;5051914;28;20811;-73
2022/04/21 08:44:21;;;;;;;10.87;9.23;;;;;;;9.06;100.00;95816.88;5049998;28;20490;-73
2022/04/21 08:46:49;;;;;;;14.20;10.13;;;;;;;9.38;100.00;95854.84;5051262;28;20945;-74
2022/04/21 08:49:18;;;;;;;10.60;9.60;;;;;;;9.28;100.00;95853.41;5049884;28;20464;-74
2022/04/21 08:51:45;;;;;;;9.87;8.97;;;;;;;9.48;100.00;95844.63;5050258;28;20947;-75
2022/04/21 08:54:12;;;;;;;10.07;9.03;;;;;;;9.55;100.00;95856.47;5051758;28;20498;-74
2022/04/21 08:56:40;;;;;;;10.53;9.40;;;;;;;9.24;100.00;95815.59;5050648;28;20512;-74
2022/04/21 08:59:07;;;;;;;11.73;10.13;;;;;;;9.56;100.00;95837.66;5033577;28;20558;-75
2022/04/21 09:01:34;;;;;;;9.20;8.40;;;;;;;9.19;100.00;95829.75;5050650;28;20451;-74
2022/04/21 09:04:01;;;;;;;7.87;7.03;;;;;;;9.86;100.00;95855.88;5050953;28;21002;-74
2022/04/21 09:06:29;;;;;;;10.30;9.27;;;;;;;9.34;100.00;95788.00;5041272;28;20511;-74
2022/04/21 09:09:17;;;;;;;10.37;9.37;;;;;;;9.97;100.00;95846.41;5029871;28;20469;-74
2022/04/21 09:11:45;;;;;;;11.10;8.90;;;;;;;9.93;100.00;95854.25;5030195;28;20460;-74
2022/04/21 09:14:16;;;;;;;9.93;9.03;;;;;;;9.66;100.00;95826.69;5033835;28;21250;-74
2022/04/21 09:16:47;;;;;;;9.73;7.87;;;;;;;9.69;100.00;95804.88;5031163;28;20434;-74
2022/04/21 09:19:14;;;;;;;10.57;8.90;;;;;;;9.86;100.00;95851.38;5034263;28;20461;-74
2022/04/21 09:21:41;;;;;;;9.47;8.67;;;;;;;9.81;100.00;95854.25;5050938;28;20919;-74
2022/04/21 09:24:21;;;;;;;9.27;8.37;;;;;;;9.59;100.00;95852.06;5054129;28;21307;-74
2022/04/21 09:26:49;;;;;;;9.67;8.70;;;;;;;9.60;100.00;95843.81;5037069;28;20562;-74
2022/04/21 09:29:32;;;;;;;9.60;8.60;;;;;;;9.61;100.00;95834.78;5033962;28;20881;-74
2022/04/21 09:32:02;;;;;;;9.67;7.90;;;;;;;9.76;100.00;95836.03;5034050;28;20448;-74
2022/04/21 09:34:37;;;;;;;9.93;8.93;;;;;;;9.64;100.00;95815.69;5047724;28;20433;-74
2022/04/21 09:37:06;;;;;;;9.77;8.80;;;;;;;10.13;100.00;95836.69;5046206;28;20443;-74
2022/04/21 09:39:38;;;;;;;7.63;6.40;;;;;;;10.05;100.00;95817.25;5034478;28;20456;-75
2022/04/21 09:42:05;;;;;;;6.70;6.10;;;;;;;10.78;100.00;95849.78;5034140;28;20424;-73
2022/04/21 09:47:20;;;;;;;14.50;6.17;;;;;;;10.60;100.00;95818.38;5036372;28;20433;-74
2022/04/21 09:49:47;;;;;;;8.20;7.20;;;;;;;10.43;100.00;95820.56;5033764;28;20451;-74
2022/04/21 09:52:28;;;;;;;7.23;6.53;;;;;;;10.61;100.00;95800.63;5033690;28;20444;-74
2022/04/21 09:54:55;;;;;;;6.70;6.00;;;;;;;10.85;100.00;95832.22;5034495;28;20421;-72
2022/04/21 09:57:34;;;;;;;6.20;5.60;;;;;;;11.14;100.00;95832.94;5017414;28;20495;-71
2022/04/21 10:00:02;;;;;;;7.80;5.60;;;;;;;11.24;100.00;95835.84;5034600;28;20820;-71
2022/04/21 10:02:33;;;;;;;6.07;5.10;;;;;;;11.05;99.75;95832.31;5037520;28;20424;-73
2022/04/21 10:05:00;;;;;;;6.60;5.90;;;;;;;11.04;100.00;95820.22;5045683;28;20517;-73
2022/04/21 10:07:27;;;;;;;6.83;6.23;;;;;;;10.63;100.00;95806.34;5047777;28;20881;-73
2022/04/21 10:09:54;;;;;;;7.07;5.57;;;;;;;11.03;100.00;95818.69;5026333;28;20500;-73
2022/04/21 10:12:22;;;;;;;10.70;7.90;;;;;;;10.90;100.00;95831.97;5052918;28;20439;-73
2022/04/21 10:14:51;;;;;;;8.60;6.33;;;;;;;11.23;99.89;95823.72;5055806;28;20535;-73
2022/04/21 10:17:19;;;;;;;7.77;6.53;;;;;;;11.09;100.00;95825.25;5058278;28;20446;-72
2022/04/21 10:19:50;;;;;;;7.17;6.20;;;;;;;11.33;96.65;95813.72;5058430;28;20472;-71
2022/04/21 10:22:25;;;;;;;5.23;4.60;;;;;;;11.30;95.75;95782.66;5076847;28;20456;-72
2022/04/21 10:24:56;;;;;;;5.00;4.60;;;;;;;12.00;93.30;95817.88;5073142;28;20482;-72
2022/04/21 10:27:35;;;;;;;7.30;6.70;;;;;;;11.98;92.85;95824.63;5058161;28;20433;-71
2022/04/21 10:30:10;;;;;;;8.90;5.70;;;;;;;12.72;93.79;95815.47;5058019;28;20444;-72
2022/04/21 10:32:50;;;;;;;5.70;5.20;;;;;;;12.13;92.47;95810.56;5057759;28;20401;-72
2022/04/21 10:35:38;;;;;;;4.33;4.03;;;;;;;12.56;86.65;95811.38;5031077;28;20436;-71
2022/04/21 10:38:14;;;;;;;4.30;3.90;;;;;;;12.22;89.17;95799.75;5021370;28;20436;-72
2022/04/21 10:41:10;;;;;;;5.40;5.00;;;;;;;11.56;90.65;95809.34;5016356;28;20980;-72
2022/04/21 10:43:52;;;;;;;3.30;3.10;;;;;;;11.18;89.44;95804.69;5053740;28;20587;-72
2022/04/21 10:46:21;;;;;;;3.90;3.60;;;;;;;11.25;89.77;95765.16;5053487;28;20433;-72
2022/04/21 10:48:49;;;;;;;5.13;4.63;;;;;;;11.38;87.13;95723.47;5051833;28;20476;-72
2022/04/21 10:57:36;;;;;;;6.03;5.33;;;;;;;11.62;87.27;95778.84;5051234;28;20539;-72
2022/04/21 11:00:06;;;;;;;6.70;6.00;;;;;;;11.76;90.10;95789.72;5051344;28;20495;-72
2022/04/21 11:02:43;;;;;;;7.30;4.67;;;;;;;11.92;84.20;95795.00;5051334;28;20519;-72
2022/04/21 11:05:39;;;;;;;6.40;5.80;;;;;;;12.48;84.20;95783.19;5034770;28;20846;-72
2022/04/21 11:08:14;;;;;;;5.90;5.43;;;;;;;12.58;84.90;95787.94;5030942;28;20529;-72
2022/04/21 11:10:43;;;;;;;5.70;5.20;;;;;;;12.15;84.00;95792.41;5030401;28;20530;-72
2022/04/21 11:13:17;;;;;;;8.00;6.80;;;;;;;12.43;82.70;95765.69;5014761;28;20493;-72
2022/04/21 11:15:53;;;;;;;7.07;4.17;;;;;;;12.47;80.98;95782.44;5038042;28;20514;-72
2022/04/21 11:18:31;;;;;;;6.97;6.33;;;;;;;12.64;80.72;95781.97;5036953;28;20426;-72
2022/04/21 11:21:26;;;;;;;5.47;5.07;;;;;;;12.59;80.81;95776.97;5030990;28;20484;-72
2022/04/21 11:23:53;;;;;;;5.53;5.07;;;;;;;12.49;81.12;95776.78;5031103;28;21234;-72
2022/04/21 11:26:30;;;;;;;4.90;4.50;;;;;;;12.53;78.19;95767.00;5031108;28;20422;-72
2022/04/21 11:29:02;;;;;;;5.00;3.87;;;;;;;13.07;77.21;95763.34;5032138;28;20514;-72
2022/04/21 11:31:29;;;;;;;5.60;5.20;;;;;;;13.02;74.83;95778.44;5030857;28;20570;-72
2022/04/21 11:34:03;;;;;;;5.10;3.50;;;;;;;12.98;74.25;95774.97;5030845;28;20935;-72
2022/04/21 11:36:35;;;;;;;6.03;5.43;;;;;;;12.53;76.48;95754.50;5030407;28;20866;-72
2022/04/21 11:39:07;;;;;;;5.43;4.97;;;;;;;12.66;76.63;95760.41;5030505;28;20459;-72
2022/04/21 11:41:40;;;;;;;4.40;4.00;;;;;;;13.17;74.05;95766.16;5032380;28;20603;-72
2022/04/21 11:44:07;;;;;;;4.80;3.30;;;;;;;12.67;76.32;95769.88;5029421;28;20471;-72
2022/04/21 11:46:40;;;;;;;5.17;4.70;;;;;;;12.91;75.43;95766.13;5017073;28;20940;-72
2022/04/21 11:49:08;;;;;;;3.50;2.97;;;;;;;13.24;73.37;95746.97;5030277;28;20898;-72
2022/04/21 11:51:35;;;;;;;3.20;2.93;;;;;;;13.04;71.76;95738.28;5030420;28;20498;-73
2022/04/21 11:54:07;;;;;;;4.47;4.07;;;;;;;12.56;75.73;95761.78;5030253;28;20445;-72
2022/04/21 11:56:34;;;;;;;4.77;4.37;;;;;;;12.14;77.18;95756.44;5030293;28;20551;-72
2022/04/21 11:59:08;;;;;;;6.40;5.30;;;;;;;12.13;79.42;95752.25;5030127;28;20552;-72
2022/04/21 12:07:15;;;;;;;5.77;5.23;;;;;;;12.12;84.94;95735.59;5030174;28;20510;-72
2022/04/21 12:09:43;;;;;;;5.53;5.03;;;;;;;12.34;81.69;95752.66;5030284;28;20547;-73
2022/04/21 12:12:10;;;;;;;5.33;4.83;;;;;;;12.41;79.35;95750.13;5030122;28;20441;-72
2022/04/21 12:14:41;;;;;;;5.07;4.57;;;;;;;12.40;82.12;95758.44;5030138;28;21022;-72
2022/04/21 12:17:10;;;;;;;5.63;5.00;;;;;;;12.09;81.76;95728.34;5044862;28;20441;-72
2022/04/21 12:19:41;;;;;;;5.07;4.67;;;;;;;11.92;81.93;95739.38;5031210;28;20457;-72
2022/04/21 12:22:19;;;;;;;5.37;4.87;;;;;;;11.86;82.77;95745.28;5013687;28;20451;-72
2022/04/21 12:24:54;;;;;;;5.40;4.90;;;;;;;12.13;84.06;95742.41;5029888;28;20486;-72
2022/04/21 12:27:34;;;;;;;6.20;5.00;;;;;;;11.75;86.69;95751.13;5029840;28;20483;-72
2022/04/21 12:30:13;;;;;;;6.10;5.50;;;;;;;11.83;87.11;95733.50;5029845;28;20472;-72